createdAt,value
2023-04-17T00:03:07.328Z,11.07
2023-04-17T00:07:22.972Z,11.08
2023-04-17T00:11:35.465Z,11.19
2023-04-17T00:15:47.828Z,11.30
2023-04-17T00:20:00.218Z,11.43
2023-04-17T00:24:13.444Z,11.32
2023-04-17T00:28:26.452Z,11.27
2023-04-17T00:32:39.002Z,11.20
2023-04-17T00:36:51.395Z,11.11
2023-04-17T00:41:03.878Z,11.16
2023-04-17T00:45:16.822Z,11.10
2023-04-17T00:49:32.629Z,11.07
2023-04-17T00:53:46.246Z,11.02
2023-04-17T00:57:59.397Z,11.06
2023-04-17T01:02:13.399Z,11.08
2023-04-17T01:06:27.369Z,11.03
2023-04-17T01:10:39.845Z,10.99
2023-04-17T01:14:55.328Z,11.01
2023-04-17T01:19:09.554Z,10.99
2023-04-17T01:23:26.286Z,11.06
2023-04-17T01:27:38.875Z,11.06
2023-04-17T01:31:51.617Z,11.03
2023-04-17T01:36:04.228Z,11.06
2023-04-17T01:40:16.761Z,11.03
2023-04-17T01:44:29.978Z,10.98
2023-04-17T01:48:42.473Z,10.94
2023-04-17T01:52:55.004Z,10.91
2023-04-17T01:57:07.368Z,10.88
2023-04-17T02:01:20.208Z,10.86
2023-04-17T02:05:32.720Z,10.87
2023-04-17T02:09:45.212Z,10.83
2023-04-17T02:13:57.637Z,10.82
2023-04-17T02:18:10.345Z,10.80
2023-04-17T02:22:23.015Z,10.80
2023-04-17T02:26:37.338Z,10.89
2023-04-17T02:30:50.950Z,10.92
2023-04-17T02:35:03.447Z,10.82
2023-04-17T02:39:17.495Z,10.83
2023-04-17T02:43:30.559Z,10.85
2023-04-17T02:47:43.160Z,10.83
2023-04-17T02:51:56.105Z,10.81
2023-04-17T02:56:08.641Z,10.77
2023-04-17T03:00:23.166Z,10.73
2023-04-17T03:04:38.994Z,10.72
2023-04-17T03:08:51.878Z,10.67
2023-04-17T03:13:04.861Z,10.64
2023-04-17T03:17:18.668Z,10.50
2023-04-17T03:21:31.706Z,10.34
2023-04-17T03:25:44.593Z,10.36
2023-04-17T03:29:57.586Z,10.36
2023-04-17T03:34:11.761Z,10.31
2023-04-17T03:38:24.671Z,10.27
2023-04-17T03:42:38.149Z,10.25
2023-04-17T03:46:51.011Z,10.16
2023-04-17T03:51:04.347Z,10.08
2023-04-17T03:55:18.425Z,10.07
2023-04-17T03:59:34.084Z,10.05
2023-04-17T04:03:46.817Z,10.02
2023-04-17T04:07:59.564Z,10.14
2023-04-17T04:12:23.219Z,10.19
2023-04-17T04:16:36.277Z,10.26
2023-04-17T04:20:55.107Z,10.32
2023-04-17T04:25:16.396Z,10.38
2023-04-17T04:29:35.532Z,10.31
2023-04-17T04:33:55.453Z,10.31
2023-04-17T04:38:09.970Z,10.25
2023-04-17T04:42:23.732Z,10.29
2023-04-17T04:46:47.397Z,10.56
2023-04-17T04:51:00.820Z,10.68
2023-04-17T04:55:14.804Z,10.80
2023-04-17T04:59:32.691Z,10.90
2023-04-17T05:04:03.802Z,11.07
2023-04-17T05:08:16.874Z,11.46
2023-04-17T05:12:37.437Z,11.64
2023-04-17T05:16:52.936Z,11.97
2023-04-17T05:21:06.008Z,11.73
2023-04-17T05:25:20.044Z,12.79
2023-04-17T05:29:33.367Z,13.63
2023-04-17T05:33:46.147Z,13.03
2023-04-17T05:37:58.737Z,12.90
2023-04-17T05:42:11.226Z,12.63
2023-04-17T05:46:23.648Z,12.38
2023-04-17T05:50:37.745Z,12.25
2023-04-17T05:54:51.484Z,12.57
2023-04-17T05:59:05.934Z,12.86
2023-04-17T06:03:19.895Z,13.04
2023-04-17T06:07:38.730Z,13.06
2023-04-17T06:11:51.745Z,13.25
2023-04-17T06:16:04.654Z,13.34
2023-04-17T06:20:17.208Z,13.57
2023-04-17T06:24:29.719Z,13.36
2023-04-17T06:28:43.038Z,13.52
2023-04-17T06:32:56.058Z,13.64
2023-04-17T06:37:08.600Z,14.12
2023-04-17T06:41:23.781Z,14.22
2023-04-17T06:45:36.416Z,13.78
2023-04-17T06:49:51.671Z,13.89
2023-04-17T06:54:04.109Z,14.12
2023-04-17T06:58:16.515Z,15.00
2023-04-17T07:02:29.154Z,15.46
2023-04-17T07:06:42.213Z,15.45
2023-04-17T07:10:55.288Z,15.35
2023-04-17T07:15:08.841Z,15.93
2023-04-17T07:19:21.244Z,16.43
2023-04-17T07:23:33.658Z,17.51
2023-04-17T07:27:46.405Z,17.95
2023-04-17T07:31:59.114Z,19.19
2023-04-17T07:36:12.288Z,19.38
2023-04-17T07:40:24.996Z,18.56
2023-04-17T07:44:39.275Z,18.22
2023-04-17T07:48:51.701Z,18.30
2023-04-17T07:53:04.155Z,17.35
2023-04-17T07:57:18.341Z,17.50
2023-04-17T08:01:32.217Z,17.56
2023-04-17T08:05:44.672Z,18.00
2023-04-17T08:09:57.255Z,17.83
2023-04-17T08:14:11.847Z,17.80
2023-04-17T08:18:24.275Z,17.82
2023-04-17T08:22:41.304Z,17.11
2023-04-17T08:26:53.765Z,17.03
2023-04-17T08:31:06.497Z,16.80
2023-04-17T08:35:19.273Z,16.66
2023-04-17T08:39:31.772Z,17.16
2023-04-17T08:43:50.317Z,16.61
2023-04-17T08:48:02.785Z,17.63
2023-04-17T08:52:15.261Z,17.95
2023-04-17T08:56:29.962Z,17.78
2023-04-17T09:00:44.217Z,18.66
2023-04-17T09:04:57.078Z,17.76
2023-04-17T09:09:09.808Z,18.85
2023-04-17T09:13:28.011Z,20.50
2023-04-17T09:17:40.446Z,21.38
2023-04-17T09:21:55.018Z,21.47
2023-04-17T09:26:09.964Z,18.46
2023-04-17T09:30:27.202Z,18.20
2023-04-17T09:34:42.643Z,17.79
2023-04-17T09:38:55.162Z,17.87
2023-04-17T09:43:11.877Z,18.51
2023-04-17T09:47:24.466Z,20.03
2023-04-17T09:51:37.485Z,19.25
2023-04-17T09:55:53.522Z,19.06
2023-04-17T10:00:11.178Z,19.27
2023-04-17T10:04:23.849Z,18.77
2023-04-17T10:08:36.542Z,18.98
2023-04-17T10:12:50.883Z,19.15
2023-04-17T10:17:28.976Z,19.25
2023-04-17T10:21:41.742Z,18.87
2023-04-17T10:26:26.074Z,18.24
2023-04-17T10:30:54.841Z,18.61
2023-04-17T10:35:18.277Z,18.93
2023-04-17T10:40:02.069Z,19.64
2023-04-17T10:44:16.739Z,20.04
2023-04-17T10:48:31.310Z,19.61
2023-04-17T10:52:45.943Z,19.58
2023-04-17T10:56:58.702Z,19.78
2023-04-17T11:01:12.370Z,18.92
2023-04-17T11:05:24.986Z,19.43
2023-04-17T11:09:38.617Z,18.96
2023-04-17T11:13:51.159Z,20.13
2023-04-17T11:18:04.433Z,21.79
2023-04-17T11:22:17.397Z,20.58
2023-04-17T11:26:29.868Z,19.95
2023-04-17T11:30:44.898Z,19.70
2023-04-17T11:34:58.208Z,19.83
2023-04-17T11:39:11.180Z,19.63
2023-04-17T11:43:24.917Z,20.53
2023-04-17T11:47:37.482Z,20.66
2023-04-17T11:51:49.913Z,21.85
2023-04-17T11:56:31.703Z,20.57
2023-04-17T12:00:44.247Z,21.61
2023-04-17T12:05:13.906Z,21.27
2023-04-17T12:09:31.642Z,22.24
2023-04-17T12:13:44.256Z,22.27
2023-04-17T12:17:56.753Z,20.44
2023-04-17T12:22:09.183Z,19.79
2023-04-17T12:26:22.268Z,20.98
2023-04-17T12:30:36.356Z,19.65
2023-04-17T12:34:48.822Z,19.79
2023-04-17T12:39:01.781Z,19.45
2023-04-17T12:43:14.341Z,18.90
2023-04-17T12:47:27.636Z,18.83
2023-04-17T12:51:40.179Z,19.20
2023-04-17T12:55:52.813Z,19.80
2023-04-17T13:00:07.463Z,19.47
2023-04-17T13:04:20.315Z,19.25
2023-04-17T13:08:33.159Z,19.41
2023-04-17T13:12:45.671Z,18.98
2023-04-17T13:16:58.205Z,19.12
2023-04-17T13:21:10.789Z,19.21
2023-04-17T13:25:23.238Z,19.13
2023-04-17T13:29:36.143Z,18.57
2023-04-17T13:33:49.478Z,18.12
2023-04-17T13:38:03.339Z,17.71
2023-04-17T13:42:17.151Z,16.74
2023-04-17T13:46:30.203Z,15.70
2023-04-17T13:50:44.260Z,14.98
2023-04-17T13:54:56.699Z,14.88
2023-04-17T13:59:10.636Z,14.84
2023-04-17T14:03:23.298Z,14.30
2023-04-17T14:07:35.898Z,13.87
2023-04-17T14:11:48.333Z,13.94
2023-04-17T14:16:00.724Z,13.92
2023-04-17T14:20:15.404Z,13.92
2023-04-17T14:24:27.910Z,13.80
2023-04-17T14:28:40.473Z,13.75
2023-04-17T14:32:53.799Z,13.52
2023-04-17T14:37:06.353Z,13.54
2023-04-17T14:41:18.778Z,13.51
2023-04-17T14:45:31.189Z,12.71
2023-04-17T14:49:43.584Z,11.99
2023-04-17T14:53:56.021Z,11.78
2023-04-17T14:58:08.743Z,11.42
2023-04-17T15:02:21.381Z,11.29
2023-04-17T15:06:33.903Z,11.25
2023-04-17T15:10:51.243Z,11.47
2023-04-17T15:15:04.489Z,11.75
2023-04-17T15:19:16.961Z,11.79
2023-04-17T15:23:31.689Z,12.11
2023-04-17T15:27:44.005Z,12.33
2023-04-17T15:31:56.587Z,12.36
2023-04-17T15:36:09.086Z,12.43
2023-04-17T15:40:21.733Z,12.39
2023-04-17T15:44:35.488Z,12.17
2023-04-17T15:48:57.664Z,12.20
2023-04-17T15:53:19.704Z,12.28
2023-04-17T15:57:32.037Z,12.40
2023-04-17T16:01:46.914Z,12.51
2023-04-17T16:05:59.540Z,12.47
2023-04-17T16:10:14.867Z,12.47
2023-04-17T16:14:27.984Z,12.43
2023-04-17T16:18:40.851Z,12.45
2023-04-17T16:22:53.312Z,12.51
2023-04-17T16:27:07.128Z,12.52
2023-04-17T16:31:21.608Z,12.58
2023-04-17T16:35:34.188Z,12.53
2023-04-17T16:39:47.552Z,12.56
2023-04-17T16:43:59.919Z,12.53
2023-04-17T16:48:12.784Z,12.57
2023-04-17T16:52:25.544Z,12.53
2023-04-17T16:56:38.068Z,12.52
2023-04-17T17:00:51.472Z,12.53
2023-04-17T17:05:04.693Z,12.51
2023-04-17T17:09:17.412Z,12.44
2023-04-17T17:13:30.125Z,12.40
2023-04-17T17:17:43.398Z,12.41
2023-04-17T17:21:55.771Z,12.09
2023-04-17T17:26:08.636Z,11.86
2023-04-17T17:30:22.665Z,11.82
2023-04-17T17:34:36.370Z,11.64
2023-04-17T17:38:56.080Z,11.62
2023-04-17T17:43:08.662Z,11.38
2023-04-17T17:47:21.090Z,11.38
2023-04-17T17:51:36.127Z,11.16
2023-04-17T17:55:52.637Z,11.00
2023-04-17T18:00:05.514Z,10.79
2023-04-17T18:04:18.153Z,10.62
2023-04-17T18:08:31.206Z,10.50
2023-04-17T18:12:43.928Z,10.67
2023-04-17T18:16:58.522Z,10.69
2023-04-17T18:21:12.160Z,10.74
2023-04-17T18:25:24.773Z,11.11
2023-04-17T18:29:37.253Z,11.11
2023-04-17T18:33:49.671Z,10.94
2023-04-17T18:38:02.136Z,10.88
2023-04-17T18:42:14.569Z,10.78
2023-04-17T18:46:30.662Z,10.77
2023-04-17T18:50:43.334Z,10.95
2023-04-17T18:54:55.780Z,11.01
2023-04-17T18:59:08.231Z,11.02
2023-04-17T19:03:20.657Z,11.13
2023-04-17T19:07:33.071Z,11.33
2023-04-17T19:11:46.067Z,11.21
2023-04-17T19:15:58.587Z,11.10
2023-04-17T19:20:11.197Z,10.95
2023-04-17T19:24:23.646Z,11.10
2023-04-17T19:28:36.727Z,10.96
2023-04-17T19:32:49.287Z,10.98
2023-04-17T19:37:01.724Z,11.06
2023-04-17T19:41:20.141Z,10.90
2023-04-17T19:45:34.513Z,10.84
2023-04-17T19:49:49.173Z,10.84
2023-04-17T19:54:01.567Z,10.86
2023-04-17T19:58:13.982Z,10.94
2023-04-17T20:02:27.153Z,10.95
2023-04-17T20:06:41.241Z,11.17
2023-04-17T20:10:53.807Z,11.05
2023-04-17T20:15:06.599Z,10.92
2023-04-17T20:19:19.093Z,10.86
2023-04-17T20:23:31.493Z,10.81
2023-04-17T20:27:43.865Z,10.82
2023-04-17T20:31:56.303Z,10.70
2023-04-17T20:36:08.802Z,10.64
2023-04-17T20:40:23.170Z,10.59
2023-04-17T20:44:35.636Z,10.56
2023-04-17T20:48:48.870Z,10.47
2023-04-17T20:53:01.130Z,10.48
2023-04-17T20:57:13.547Z,10.49
2023-04-17T21:01:26.046Z,10.63
2023-04-17T21:05:38.534Z,10.56
2023-04-17T21:09:51.225Z,10.51
2023-04-17T21:14:04.106Z,10.54
2023-04-17T21:18:16.494Z,10.47
2023-04-17T21:22:28.863Z,10.46
2023-04-17T21:26:41.269Z,10.40
2023-04-17T21:30:53.987Z,10.33
2023-04-17T21:35:07.299Z,10.29
2023-04-17T21:39:19.832Z,10.31
2023-04-17T21:43:32.278Z,10.31
2023-04-17T21:47:44.689Z,10.23
2023-04-17T21:51:57.630Z,10.23
2023-04-17T21:56:10.126Z,10.15
2023-04-17T22:00:23.139Z,10.07
2023-04-17T22:04:36.009Z,9.97
2023-04-17T22:08:48.604Z,9.92
2023-04-17T22:13:01.108Z,10.02
2023-04-17T22:17:13.613Z,9.93
2023-04-17T22:21:45.009Z,9.87
2023-04-17T22:26:16.293Z,9.93
2023-04-17T22:31:27.553Z,9.92
2023-04-17T22:35:39.944Z,10.22
2023-04-17T22:40:30.444Z,9.91
2023-04-17T22:45:38.684Z,9.86
2023-04-17T22:50:50.105Z,9.72
2023-04-17T22:55:04.347Z,9.63
2023-04-17T22:59:54.201Z,9.67
2023-04-17T23:04:43.801Z,9.55
2023-04-17T23:09:33.205Z,9.41
2023-04-17T23:13:45.730Z,9.31
2023-04-17T23:17:58.141Z,9.29
2023-04-17T23:22:10.716Z,9.26
2023-04-17T23:26:23.342Z,9.12
2023-04-17T23:30:36.088Z,8.97
2023-04-17T23:34:48.757Z,9.11
2023-04-17T23:39:01.719Z,8.96
2023-04-17T23:43:14.437Z,8.91
2023-04-17T23:47:27.058Z,8.96
2023-04-17T23:51:39.755Z,8.71
2023-04-17T23:55:52.480Z,8.68
